SBSN Airport Information

Runway Information
Runway 10 Length 7874 ft width 148 ft
Elevation 0 ft Threshold 0 ft Heading 0
Runway 28 Length 7874 ft Width 148 ft
Elevation 0 ft Threshold 0 ft Heading 0
Airport Frequencies
Type APP Name APP Frequency 119.3 MHZ
Type TWR Name TWR Frequency 118.1 MHZ
Airport Navaids
Type VOR-DME Name Santarem Frequency 112300 KHZ
Type NDB Name Santarem Frequency 350 KHZ
Airport Weather Information & NOTAM
ADDS - METARS form results

(2231 UTC 20 June 2018)
 
METAR text: SBSN 202200Z 00000KT 9999 FEW017 26/24 Q1012
Conditions at: SBSN (SANTAREM INTL AR, BR) observed 2200 UTC 20 June 2018
Temperature: 26.0°C (79°F)
Dewpoint: 24.0°C (75°F) [RH = 89%]
Pressure (altimeter): 29.88 inches Hg (1012.0 mb)
Winds: calm
Visibility: 6 or more miles (10+ km)
Ceiling: at least 12,000 feet AGL
Clouds: few clouds at 1700 feet AGL
Weather: no significant weather observed at this time